*** The Vicarage Weather Feed ***

Nearby METAR Reports


 

CYOO - Oshawa, Municipal Airport, Ontario, Canada
Distance from station: NW 3.2km
Updated: 14/12/2018 07:16
Light rain, Mist, Overcast
Light rain, Mist, Overcast
 Wind from ENE
Wind: ENE 4 km/h
Temperature: 1°C
Dew Point: 1°C
Humidity: 100%
Barometer: 1024 hPa
Summary: Light rain, Mist
Clouds: Overcast
Visibility: 4 km
Cloud details: Few Clouds 1067 m
Overcast 2134 m
2018/12/14 12:16 CYOO 141216Z AUTO 06002KT 2 1/2SM -RA BR FEW035 OVC070 01/01 A3024 RMK SLP248
CYKZ - Toronto, Buttonville, Municipal Airport, Ontario, Canada
Distance from station: W 39.75km
Updated: 14/12/2018 07:00
Light rain, Overcast
Light rain, Overcast
 Wind from N
Wind: N 6 km/h
Temperature: 0°C
Dew Point: 0°C
Humidity: 100%
Barometer: 1023.7 hPa
Summary: Light rain
Clouds: Overcast
Visibility: 11 km
Cloud details: Mostly cloudy 975 m
Overcast 1768 m
2018/12/14 12:00 CYKZ 141200Z 01003KT 7SM -RA BKN032 OVC058 00/M00 A3023 RMK SC6SC2 SLP246
 
CXTO - Toronto City, Buttonville, Ontario, Canada
Distance from station: WSW 49km
Updated: 14/12/2018 07:00

 
Temperature: 4°C
Dew Point: 1°C
Humidity: 81%
2018/12/14 12:00 CXTO 141200Z AUTO 04/01 RMK AO1 SLP239 T00400013 53002
CYTZ - Toronto City, Island Airport, Ontario, Canada
Distance from station: SW 51.7km
Updated: 14/12/2018 07:09
Light rain, Mist, Overcast
Light rain, Mist, Overcast
 Wind from ENE
Wind: ENE 4 km/h
Temperature: 3°C
Dew Point: 2°C
Humidity: 93%
Barometer: 1024 hPa
Summary: Light rain, Mist
Clouds: Overcast
Visibility: 6 km
Cloud details: Mostly cloudy 1676 m
Overcast 2073 m
2018/12/14 12:09 CYTZ 141209Z AUTO 06002KT 4SM -RA BR BKN055 OVC068 03/02 A3024 RMK SLP244
 
CYPQ - Toronto, Peterborough Airport, Ontario, Canada
Distance from station: NE 54km
Updated: 14/12/2018 07:00
Mist, Overcast
Mist, Overcast
 Wind from calm
Wind: Calm
Temperature: -5°C
Dew Point: -5°C
Humidity: 100%
Barometer: 1024 hPa
Summary: Mist
Clouds: Overcast
Visibility: 8 km
Cloud details: Partly cloudy 1097 m
Overcast 2286 m
2018/12/14 12:00 CYPQ 141200Z AUTO 00000KT 5SM BR SCT036 OVC075 M05/M05 A3024 RMK SLP253
CWNC - Cobourg, (mars), Ontario, Canada
Distance from station: E 57km
Updated: 14/12/2018 07:00

 Wind from NE
Wind: NE 2 km/h
Temperature: 1°C
Dew Point: 0°C
Humidity: 93%
2018/12/14 12:00 CWNC 141200Z AUTO 05001KT 01/M00 RMK AO1 SOG 01 1006 SLP245 T00131003
 
CYYZ - Toronto, Lester Pearson Airport, Ontario, Canada
Distance from station: W 65.5km
Updated: 14/12/2018 07:00
Light rain, Overcast
Light rain, Overcast
 Wind from calm
Wind: Calm
Temperature: 2°C
Dew Point: 1°C
Humidity: 93%
Barometer: 1023.4 hPa
Summary: Light rain
Clouds: Overcast
Visibility: 10 km
Cloud details: Partly cloudy 914 m
Overcast 1524 m
2018/12/14 12:00 CYYZ 141200Z 00000KT 6SM -RA SCT030 OVC050 02/01 A3022 RMK SC3SC5 SLP242
CWGL - Lagoon City, Ontario, Canada
Distance from station: NNW 74km
Updated: 14/12/2018 07:00

 Wind from SE
Wind: SE 6 km/h
Temperature: 0°C
Dew Point: -1°C
Humidity: 93%
2018/12/14 12:00 CWGL 141200Z AUTO 14003KT M00/M01 RMK AO1 SLP239 T10031009 53005
 
CWWZ - Port Weller Airport, Ontario, Canada
Distance from station: SSW 77km
Updated: 14/12/2018 07:00

 Wind from S
Wind: S 7 km/h
Temperature: 4°C
Wind Chill: 2°C
Dew Point: 1°C
Humidity: 81%
2018/12/14 12:00 CWWZ 141200Z AUTO 17004KT 04/01 RMK AO1 SOG 03 3003 SLP241 T00430013
CYSN - St.Catharines Niagara Airport, Ontario, Canada
Distance from station: SSW 81km
Updated: 14/12/2018 07:00
Overcast
Overcast
 Wind from S
Wind: S 13 km/h
Temperature: 4°C
Wind Chill: 1°C
Dew Point: 1°C
Humidity: 81%
Barometer: 1023.7 hPa
Clouds: Overcast
Visibility: 13 km
Cloud details: Overcast 1615 m
2018/12/14 12:00 CYSN 141200Z 19007KT 8SM OVC053 04/01 A3023 RMK SC8 SLP241
This data is offered only as a general guide to local weather conditions. It should not be relied upon in lieu of officially disseminated weather information for determining possible risk to persons or property. This site, including all information contained therein, is made available as is without warranties of any kind, either express or implied. The Vicarage Weather Feed© includes links to other sites for user convenience only. The content of any linked third-party site is not controlled by The Vicarage Weather Feed©. Access to any third-party website through The Vicarage Weather Feed©, regardless of whether or not the third-party site is a linked site, is entirely at the users own risk. Externally sourced content or material is excluded from The Vicarage Weather Feed© copyright and is the copyright and property of the respective provider. Skywarn® and the Skywarn® logo are registered trademarks of the National Oceanic and Atmospheric Administration, used with permission.